sensor_id;sensor_type;location;lat;lon;timestamp;temperature;humidity
70368;DHT22;57789;53.868;10.728;2023-07-02T00:00:05;15.10;99.90
70368;DHT22;57789;53.868;10.728;2023-07-02T00:02:32;15.10;99.90
70368;DHT22;57789;53.868;10.728;2023-07-02T00:04:57;15.10;99.90
70368;DHT22;57789;53.868;10.728;2023-07-02T00:07:23;15.10;99.90
70368;DHT22;57789;53.868;10.728;2023-07-02T00:09:51;15.10;99.90
70368;DHT22;57789;53.868;10.728;2023-07-02T00:12:17;15.20;99.90
70368;DHT22;57789;53.868;10.728;2023-07-02T00:14:43;15.20;99.90
70368;DHT22;57789;53.868;10.728;2023-07-02T00:17:08;15.20;99.90
70368;DHT22;57789;53.868;10.728;2023-07-02T00:19:38;15.20;99.90
70368;DHT22;57789;53.868;10.728;2023-07-02T00:22:10;15.20;99.90
70368;DHT22;57789;53.868;10.728;2023-07-02T00:24:36;15.20;99.90
70368;DHT22;57789;53.868;10.728;2023-07-02T00:27:02;15.10;99.90
70368;DHT22;57789;53.868;10.728;2023-07-02T00:29:28;15.10;99.90
70368;DHT22;57789;53.868;10.728;2023-07-02T00:31:53;15.10;99.90
70368;DHT22;57789;53.868;10.728;2023-07-02T00:34:19;15.00;99.90
70368;DHT22;57789;53.868;10.728;2023-07-02T00:36:45;15.00;99.90
70368;DHT22;57789;53.868;10.728;2023-07-02T00:39:12;15.00;99.90
70368;DHT22;57789;53.868;10.728;2023-07-02T00:41:38;14.90;99.90
70368;DHT22;57789;53.868;10.728;2023-07-02T00:44:04;14.90;99.90
70368;DHT22;57789;53.868;10.728;2023-07-02T00:46:30;14.80;99.90
70368;DHT22;57789;53.868;10.728;2023-07-02T00:48:56;14.80;99.90
70368;DHT22;57789;53.868;10.728;2023-07-02T00:51:25;14.90;99.90
70368;DHT22;57789;53.868;10.728;2023-07-02T00:53:53;14.90;99.90
70368;DHT22;57789;53.868;10.728;2023-07-02T00:56:20;14.90;99.90
70368;DHT22;57789;53.868;10.728;2023-07-02T00:58:47;14.90;99.90
70368;DHT22;57789;53.868;10.728;2023-07-02T01:01:21;14.90;99.90
70368;DHT22;57789;53.868;10.728;2023-07-02T01:04:00;15.00;99.90
70368;DHT22;57789;53.868;10.728;2023-07-02T01:06:28;14.90;99.90
70368;DHT22;57789;53.868;10.728;2023-07-02T01:08:56;14.90;99.90
70368;DHT22;57789;53.868;10.728;2023-07-02T01:11:26;15.00;99.90
70368;DHT22;57789;53.868;10.728;2023-07-02T01:13:54;15.00;99.90
70368;DHT22;57789;53.868;10.728;2023-07-02T01:16:21;15.00;99.90
70368;DHT22;57789;53.868;10.728;2023-07-02T01:18:49;15.00;99.90
70368;DHT22;57789;53.868;10.728;2023-07-02T01:21:16;15.00;99.90
70368;DHT22;57789;53.868;10.728;2023-07-02T01:23:43;15.00;99.90
70368;DHT22;57789;53.868;10.728;2023-07-02T01:26:09;15.00;99.90
70368;DHT22;57789;53.868;10.728;2023-07-02T01:28:35;15.00;99.90
70368;DHT22;57789;53.868;10.728;2023-07-02T01:31:04;15.00;99.90
70368;DHT22;57789;53.868;10.728;2023-07-02T01:33:30;15.00;99.90
70368;DHT22;57789;53.868;10.728;2023-07-02T01:35:56;14.90;99.90
70368;DHT22;57789;53.868;10.728;2023-07-02T01:38:22;14.90;99.90
70368;DHT22;57789;53.868;10.728;2023-07-02T01:40:48;14.90;99.90
70368;DHT22;57789;53.868;10.728;2023-07-02T01:43:13;14.90;99.90
70368;DHT22;57789;53.868;10.728;2023-07-02T01:45:41;14.90;99.90
70368;DHT22;57789;53.868;10.728;2023-07-02T01:48:07;14.90;99.90
70368;DHT22;57789;53.868;10.728;2023-07-02T01:50:33;14.80;99.90
70368;DHT22;57789;53.868;10.728;2023-07-02T01:52:58;14.90;99.90
70368;DHT22;57789;53.868;10.728;2023-07-02T01:55:24;14.90;99.90
70368;DHT22;57789;53.868;10.728;2023-07-02T01:57:50;14.90;99.90
70368;DHT22;57789;53.868;10.728;2023-07-02T02:00:16;14.90;99.90
70368;DHT22;57789;53.868;10.728;2023-07-02T02:02:43;14.90;99.90
70368;DHT22;57789;53.868;10.728;2023-07-02T02:05:09;14.80;99.90
70368;DHT22;57789;53.868;10.728;2023-07-02T02:07:36;14.80;99.90
70368;DHT22;57789;53.868;10.728;2023-07-02T02:10:02;14.80;99.90
70368;DHT22;57789;53.868;10.728;2023-07-02T02:12:29;14.80;99.90
70368;DHT22;57789;53.868;10.728;2023-07-02T02:14:55;14.80;99.90
70368;DHT22;57789;53.868;10.728;2023-07-02T02:17:21;14.90;99.90
70368;DHT22;57789;53.868;10.728;2023-07-02T02:19:46;14.90;99.90
70368;DHT22;57789;53.868;10.728;2023-07-02T02:22:12;14.90;99.90
70368;DHT22;57789;53.868;10.728;2023-07-02T02:24:38;14.90;99.90
70368;DHT22;57789;53.868;10.728;2023-07-02T02:27:04;15.00;99.90
70368;DHT22;57789;53.868;10.728;2023-07-02T02:29:29;15.00;99.90
70368;DHT22;57789;53.868;10.728;2023-07-02T02:31:55;15.00;99.90
70368;DHT22;57789;53.868;10.728;2023-07-02T02:34:21;15.00;99.90
70368;DHT22;57789;53.868;10.728;2023-07-02T02:36:46;15.00;99.90
70368;DHT22;57789;53.868;10.728;2023-07-02T02:39:12;15.00;99.90
70368;DHT22;57789;53.868;10.728;2023-07-02T02:41:39;15.10;99.90
70368;DHT22;57789;53.868;10.728;2023-07-02T02:44:05;15.00;99.90
70368;DHT22;57789;53.868;10.728;2023-07-02T02:46:31;15.10;99.90
70368;DHT22;57789;53.868;10.728;2023-07-02T02:48:56;15.10;99.90
70368;DHT22;57789;53.868;10.728;2023-07-02T02:51:22;15.00;99.90
70368;DHT22;57789;53.868;10.728;2023-07-02T02:53:48;15.10;99.90
70368;DHT22;57789;53.868;10.728;2023-07-02T02:56:13;15.00;99.90
70368;DHT22;57789;53.868;10.728;2023-07-02T02:58:40;15.00;99.90
70368;DHT22;57789;53.868;10.728;2023-07-02T03:01:05;14.90;99.90
70368;DHT22;57789;53.868;10.728;2023-07-02T03:03:38;14.90;99.90
70368;DHT22;57789;53.868;10.728;2023-07-02T03:06:05;14.80;99.90
70368;DHT22;57789;53.868;10.728;2023-07-02T03:08:31;14.80;99.90
70368;DHT22;57789;53.868;10.728;2023-07-02T03:10:57;14.80;99.90
70368;DHT22;57789;53.868;10.728;2023-07-02T03:13:22;14.90;99.90
70368;DHT22;57789;53.868;10.728;2023-07-02T03:15:48;14.90;99.90
70368;DHT22;57789;53.868;10.728;2023-07-02T03:18:13;14.90;99.90
70368;DHT22;57789;53.868;10.728;2023-07-02T03:20:39;15.00;99.90
70368;DHT22;57789;53.868;10.728;2023-07-02T03:23:05;14.90;99.90
70368;DHT22;57789;53.868;10.728;2023-07-02T03:25:31;14.90;99.90
70368;DHT22;57789;53.868;10.728;2023-07-02T03:27:56;14.80;99.90
70368;DHT22;57789;53.868;10.728;2023-07-02T03:30:22;14.80;99.90
70368;DHT22;57789;53.868;10.728;2023-07-02T03:32:47;14.80;99.90
70368;DHT22;57789;53.868;10.728;2023-07-02T03:35:13;14.80;99.90
70368;DHT22;57789;53.868;10.728;2023-07-02T03:37:39;14.80;99.90
70368;DHT22;57789;53.868;10.728;2023-07-02T03:40:09;14.80;99.90
70368;DHT22;57789;53.868;10.728;2023-07-02T03:42:35;14.80;99.90
70368;DHT22;57789;53.868;10.728;2023-07-02T03:45:00;14.90;99.90
70368;DHT22;57789;53.868;10.728;2023-07-02T03:47:26;14.90;99.90
70368;DHT22;57789;53.868;10.728;2023-07-02T03:49:51;14.90;99.90
70368;DHT22;57789;53.868;10.728;2023-07-02T03:52:17;15.00;99.90
70368;DHT22;57789;53.868;10.728;2023-07-02T03:54:43;15.00;99.90
70368;DHT22;57789;53.868;10.728;2023-07-02T03:57:08;15.00;99.90
70368;DHT22;57789;53.868;10.728;2023-07-02T03:59:34;15.10;99.90
70368;DHT22;57789;53.868;10.728;2023-07-02T04:02:00;15.10;99.90
70368;DHT22;57789;53.868;10.728;2023-07-02T04:04:26;15.10;99.90
70368;DHT22;57789;53.868;10.728;2023-07-02T04:06:52;15.10;99.90
70368;DHT22;57789;53.868;10.728;2023-07-02T04:09:17;15.00;99.90
70368;DHT22;57789;53.868;10.728;2023-07-02T04:11:44;15.00;99.90
70368;DHT22;57789;53.868;10.728;2023-07-02T04:14:09;15.00;99.90
70368;DHT22;57789;53.868;10.728;2023-07-02T04:16:35;15.00;99.90
70368;DHT22;57789;53.868;10.728;2023-07-02T04:19:01;15.00;99.90
70368;DHT22;57789;53.868;10.728;2023-07-02T04:21:26;15.00;99.90
70368;DHT22;57789;53.868;10.728;2023-07-02T04:23:52;15.00;99.90
70368;DHT22;57789;53.868;10.728;2023-07-02T04:26:18;15.00;99.90
70368;DHT22;57789;53.868;10.728;2023-07-02T04:28:44;15.00;99.90
70368;DHT22;57789;53.868;10.728;2023-07-02T04:31:09;15.00;99.90
70368;DHT22;57789;53.868;10.728;2023-07-02T04:33:35;15.00;99.90
70368;DHT22;57789;53.868;10.728;2023-07-02T04:36:04;15.10;99.90
70368;DHT22;57789;53.868;10.728;2023-07-02T04:38:30;15.10;99.90
70368;DHT22;57789;53.868;10.728;2023-07-02T04:40:55;15.00;99.90
70368;DHT22;57789;53.868;10.728;2023-07-02T04:43:27;15.00;99.90
70368;DHT22;57789;53.868;10.728;2023-07-02T04:45:55;15.00;99.90
70368;DHT22;57789;53.868;10.728;2023-07-02T04:48:21;15.00;99.90
70368;DHT22;57789;53.868;10.728;2023-07-02T04:50:46;15.00;99.90
70368;DHT22;57789;53.868;10.728;2023-07-02T04:53:12;15.00;99.90
70368;DHT22;57789;53.868;10.728;2023-07-02T04:55:38;15.00;99.90
70368;DHT22;57789;53.868;10.728;2023-07-02T04:58:03;15.10;99.90
70368;DHT22;57789;53.868;10.728;2023-07-02T05:00:29;15.10;99.90
70368;DHT22;57789;53.868;10.728;2023-07-02T05:02:55;15.10;99.90
70368;DHT22;57789;53.868;10.728;2023-07-02T05:05:20;15.10;99.90
70368;DHT22;57789;53.868;10.728;2023-07-02T05:07:46;15.20;99.90
70368;DHT22;57789;53.868;10.728;2023-07-02T05:10:12;15.20;99.90
70368;DHT22;57789;53.868;10.728;2023-07-02T05:12:37;15.20;99.90
70368;DHT22;57789;53.868;10.728;2023-07-02T05:15:03;15.30;99.90
70368;DHT22;57789;53.868;10.728;2023-07-02T05:17:29;15.30;99.90
70368;DHT22;57789;53.868;10.728;2023-07-02T05:19:55;15.30;99.90
70368;DHT22;57789;53.868;10.728;2023-07-02T05:22:20;15.40;99.90
70368;DHT22;57789;53.868;10.728;2023-07-02T05:24:46;15.50;99.90
70368;DHT22;57789;53.868;10.728;2023-07-02T05:27:12;15.50;99.90
70368;DHT22;57789;53.868;10.728;2023-07-02T05:29:38;15.50;99.90
70368;DHT22;57789;53.868;10.728;2023-07-02T05:32:04;15.60;99.90
70368;DHT22;57789;53.868;10.728;2023-07-02T05:34:29;15.70;99.90
70368;DHT22;57789;53.868;10.728;2023-07-02T05:36:55;15.90;99.90
70368;DHT22;57789;53.868;10.728;2023-07-02T05:39:21;15.90;99.90
70368;DHT22;57789;53.868;10.728;2023-07-02T05:41:47;15.90;99.90
70368;DHT22;57789;53.868;10.728;2023-07-02T05:44:13;15.90;99.90
70368;DHT22;57789;53.868;10.728;2023-07-02T05:46:39;15.80;99.90
70368;DHT22;57789;53.868;10.728;2023-07-02T05:49:05;15.80;99.90
70368;DHT22;57789;53.868;10.728;2023-07-02T05:51:31;15.90;99.90
70368;DHT22;57789;53.868;10.728;2023-07-02T05:53:57;15.90;99.90
70368;DHT22;57789;53.868;10.728;2023-07-02T05:56:23;15.90;99.90
70368;DHT22;57789;53.868;10.728;2023-07-02T05:58:49;16.00;99.90
70368;DHT22;57789;53.868;10.728;2023-07-02T06:01:15;16.10;99.90
70368;DHT22;57789;53.868;10.728;2023-07-02T06:03:41;16.20;99.90
70368;DHT22;57789;53.868;10.728;2023-07-02T06:06:08;16.30;99.90
70368;DHT22;57789;53.868;10.728;2023-07-02T06:08:34;16.40;99.90
70368;DHT22;57789;53.868;10.728;2023-07-02T06:10:59;16.50;99.90
70368;DHT22;57789;53.868;10.728;2023-07-02T06:13:25;16.50;99.90
70368;DHT22;57789;53.868;10.728;2023-07-02T06:15:51;16.50;99.90
70368;DHT22;57789;53.868;10.728;2023-07-02T06:18:17;16.50;99.90
70368;DHT22;57789;53.868;10.728;2023-07-02T06:20:43;16.60;99.90
70368;DHT22;57789;53.868;10.728;2023-07-02T06:23:09;16.60;99.90
70368;DHT22;57789;53.868;10.728;2023-07-02T06:25:34;16.60;99.90
70368;DHT22;57789;53.868;10.728;2023-07-02T06:28:00;16.60;99.90
70368;DHT22;57789;53.868;10.728;2023-07-02T06:30:26;16.70;99.90
70368;DHT22;57789;53.868;10.728;2023-07-02T06:32:52;16.70;99.90
70368;DHT22;57789;53.868;10.728;2023-07-02T06:35:18;16.80;99.90
70368;DHT22;57789;53.868;10.728;2023-07-02T06:37:44;16.80;99.90
70368;DHT22;57789;53.868;10.728;2023-07-02T06:40:10;16.80;99.90
70368;DHT22;57789;53.868;10.728;2023-07-02T06:42:35;16.70;99.90
70368;DHT22;57789;53.868;10.728;2023-07-02T06:45:02;16.80;99.90
70368;DHT22;57789;53.868;10.728;2023-07-02T06:47:28;16.70;99.90
70368;DHT22;57789;53.868;10.728;2023-07-02T06:49:53;16.70;99.90
70368;DHT22;57789;53.868;10.728;2023-07-02T06:52:19;16.70;99.90
70368;DHT22;57789;53.868;10.728;2023-07-02T06:54:45;16.80;99.90
70368;DHT22;57789;53.868;10.728;2023-07-02T06:57:12;16.90;99.90
70368;DHT22;57789;53.868;10.728;2023-07-02T06:59:38;16.90;99.90
70368;DHT22;57789;53.868;10.728;2023-07-02T07:02:04;16.90;99.90
70368;DHT22;57789;53.868;10.728;2023-07-02T07:04:29;16.90;99.90
70368;DHT22;57789;53.868;10.728;2023-07-02T07:06:55;17.00;99.90
70368;DHT22;57789;53.868;10.728;2023-07-02T07:09:21;17.00;99.90
70368;DHT22;57789;53.868;10.728;2023-07-02T07:11:47;17.10;99.90
70368;DHT22;57789;53.868;10.728;2023-07-02T07:14:13;17.20;99.90
70368;DHT22;57789;53.868;10.728;2023-07-02T07:16:39;17.20;99.90
70368;DHT22;57789;53.868;10.728;2023-07-02T07:19:05;17.20;99.90
70368;DHT22;57789;53.868;10.728;2023-07-02T07:21:30;17.20;99.90
70368;DHT22;57789;53.868;10.728;2023-07-02T07:23:56;17.40;99.90
70368;DHT22;57789;53.868;10.728;2023-07-02T07:26:22;17.40;99.90
70368;DHT22;57789;53.868;10.728;2023-07-02T07:28:48;17.50;99.90
70368;DHT22;57789;53.868;10.728;2023-07-02T07:31:13;17.50;99.90
70368;DHT22;57789;53.868;10.728;2023-07-02T07:33:39;17.60;99.90
70368;DHT22;57789;53.868;10.728;2023-07-02T07:36:04;17.70;99.90
70368;DHT22;57789;53.868;10.728;2023-07-02T07:38:30;17.60;99.90
70368;DHT22;57789;53.868;10.728;2023-07-02T07:40:56;17.70;99.90
70368;DHT22;57789;53.868;10.728;2023-07-02T07:43:21;17.80;99.90
70368;DHT22;57789;53.868;10.728;2023-07-02T07:45:47;17.90;99.90
70368;DHT22;57789;53.868;10.728;2023-07-02T07:48:13;18.00;99.90
70368;DHT22;57789;53.868;10.728;2023-07-02T07:50:38;18.20;99.90
70368;DHT22;57789;53.868;10.728;2023-07-02T07:53:04;18.20;99.90
70368;DHT22;57789;53.868;10.728;2023-07-02T07:55:30;18.10;99.90
70368;DHT22;57789;53.868;10.728;2023-07-02T07:57:55;17.90;99.90
70368;DHT22;57789;53.868;10.728;2023-07-02T08:00:21;17.80;99.90
70368;DHT22;57789;53.868;10.728;2023-07-02T08:02:47;17.70;99.90
70368;DHT22;57789;53.868;10.728;2023-07-02T08:05:12;17.40;99.90
70368;DHT22;57789;53.868;10.728;2023-07-02T08:07:39;17.20;99.90
70368;DHT22;57789;53.868;10.728;2023-07-02T08:10:08;17.20;99.90
70368;DHT22;57789;53.868;10.728;2023-07-02T08:12:34;17.10;99.90
70368;DHT22;57789;53.868;10.728;2023-07-02T08:15:00;17.00;99.90
70368;DHT22;57789;53.868;10.728;2023-07-02T08:17:26;17.10;99.90
70368;DHT22;57789;53.868;10.728;2023-07-02T08:19:51;17.10;99.90
70368;DHT22;57789;53.868;10.728;2023-07-02T08:22:17;17.20;99.90
70368;DHT22;57789;53.868;10.728;2023-07-02T08:24:43;17.20;99.90
70368;DHT22;57789;53.868;10.728;2023-07-02T08:27:09;17.40;99.90
70368;DHT22;57789;53.868;10.728;2023-07-02T08:29:36;17.40;99.90
70368;DHT22;57789;53.868;10.728;2023-07-02T08:32:01;17.40;99.90
70368;DHT22;57789;53.868;10.728;2023-07-02T08:34:27;17.40;99.90
70368;DHT22;57789;53.868;10.728;2023-07-02T08:36:53;17.30;99.90
70368;DHT22;57789;53.868;10.728;2023-07-02T08:39:18;17.40;99.90
70368;DHT22;57789;53.868;10.728;2023-07-02T08:41:45;17.50;99.90
70368;DHT22;57789;53.868;10.728;2023-07-02T08:44:12;17.50;99.90
70368;DHT22;57789;53.868;10.728;2023-07-02T08:46:39;17.60;99.90
70368;DHT22;57789;53.868;10.728;2023-07-02T08:49:07;17.80;99.90
70368;DHT22;57789;53.868;10.728;2023-07-02T08:51:33;18.00;99.90
70368;DHT22;57789;53.868;10.728;2023-07-02T08:53:58;18.30;99.90
70368;DHT22;57789;53.868;10.728;2023-07-02T08:56:24;18.40;99.90
70368;DHT22;57789;53.868;10.728;2023-07-02T08:58:51;18.50;99.90
70368;DHT22;57789;53.868;10.728;2023-07-02T09:01:17;18.70;99.90
70368;DHT22;57789;53.868;10.728;2023-07-02T09:03:43;18.80;99.90
70368;DHT22;57789;53.868;10.728;2023-07-02T09:06:10;19.10;99.90
70368;DHT22;57789;53.868;10.728;2023-07-02T09:08:36;19.10;99.90
70368;DHT22;57789;53.868;10.728;2023-07-02T09:11:12;18.80;99.90
70368;DHT22;57789;53.868;10.728;2023-07-02T09:13:56;18.50;99.90
70368;DHT22;57789;53.868;10.728;2023-07-02T09:16:33;18.20;99.90
70368;DHT22;57789;53.868;10.728;2023-07-02T09:19:02;18.00;99.90
70368;DHT22;57789;53.868;10.728;2023-07-02T09:21:48;18.10;99.90
70368;DHT22;57789;53.868;10.728;2023-07-02T09:24:22;18.50;99.90
70368;DHT22;57789;53.868;10.728;2023-07-02T09:26:53;18.70;99.90
70368;DHT22;57789;53.868;10.728;2023-07-02T09:31:50;18.90;99.90
70368;DHT22;57789;53.868;10.728;2023-07-02T09:34:16;18.60;99.90
70368;DHT22;57789;53.868;10.728;2023-07-02T09:36:43;18.40;99.90
70368;DHT22;57789;53.868;10.728;2023-07-02T09:39:13;18.50;99.90
70368;DHT22;57789;53.868;10.728;2023-07-02T09:41:42;18.90;99.90
70368;DHT22;57789;53.868;10.728;2023-07-02T09:44:10;18.90;99.90
70368;DHT22;57789;53.868;10.728;2023-07-02T09:46:43;18.80;99.90
70368;DHT22;57789;53.868;10.728;2023-07-02T09:49:14;18.90;99.90
70368;DHT22;57789;53.868;10.728;2023-07-02T09:51:42;19.10;99.90
70368;DHT22;57789;53.868;10.728;2023-07-02T09:54:09;19.20;99.90
70368;DHT22;57789;53.868;10.728;2023-07-02T09:56:35;19.10;99.90
70368;DHT22;57789;53.868;10.728;2023-07-02T09:59:01;19.20;99.90
70368;DHT22;57789;53.868;10.728;2023-07-02T10:01:27;19.20;99.90
70368;DHT22;57789;53.868;10.728;2023-07-02T10:03:52;19.10;99.90
70368;DHT22;57789;53.868;10.728;2023-07-02T10:06:18;18.80;99.90
70368;DHT22;57789;53.868;10.728;2023-07-02T10:08:54;18.40;99.90
70368;DHT22;57789;53.868;10.728;2023-07-02T10:11:21;18.40;99.90
70368;DHT22;57789;53.868;10.728;2023-07-02T10:13:58;18.20;99.90
70368;DHT22;57789;53.868;10.728;2023-07-02T10:16:24;17.80;99.90
70368;DHT22;57789;53.868;10.728;2023-07-02T10:18:53;18.00;99.90
70368;DHT22;57789;53.868;10.728;2023-07-02T10:21:19;18.10;99.90
70368;DHT22;57789;53.868;10.728;2023-07-02T10:23:45;18.60;99.90
70368;DHT22;57789;53.868;10.728;2023-07-02T10:26:15;19.10;99.90
70368;DHT22;57789;53.868;10.728;2023-07-02T10:28:42;18.80;99.90
70368;DHT22;57789;53.868;10.728;2023-07-02T10:31:20;18.30;99.90
70368;DHT22;57789;53.868;10.728;2023-07-02T10:33:47;18.10;99.90
70368;DHT22;57789;53.868;10.728;2023-07-02T10:36:23;18.00;99.90
70368;DHT22;57789;53.868;10.728;2023-07-02T10:38:49;18.00;99.90
70368;DHT22;57789;53.868;10.728;2023-07-02T10:41:29;18.00;99.90
70368;DHT22;57789;53.868;10.728;2023-07-02T10:44:10;18.40;99.90
70368;DHT22;57789;53.868;10.728;2023-07-02T10:46:46;18.70;99.90
70368;DHT22;57789;53.868;10.728;2023-07-02T10:49:12;19.20;99.90
70368;DHT22;57789;53.868;10.728;2023-07-02T10:51:38;19.50;99.90
70368;DHT22;57789;53.868;10.728;2023-07-02T10:54:04;19.20;99.90
70368;DHT22;57789;53.868;10.728;2023-07-02T10:56:31;18.70;99.90
70368;DHT22;57789;53.868;10.728;2023-07-02T10:58:57;18.80;99.90
70368;DHT22;57789;53.868;10.728;2023-07-02T11:01:30;18.90;99.90
70368;DHT22;57789;53.868;10.728;2023-07-02T11:04:01;19.10;99.90
70368;DHT22;57789;53.868;10.728;2023-07-02T11:06:32;19.30;99.90
70368;DHT22;57789;53.868;10.728;2023-07-02T11:08:59;19.70;99.90
70368;DHT22;57789;53.868;10.728;2023-07-02T11:11:25;19.70;99.90
70368;DHT22;57789;53.868;10.728;2023-07-02T11:13:52;20.00;99.90
70368;DHT22;57789;53.868;10.728;2023-07-02T11:16:28;19.60;99.90
70368;DHT22;57789;53.868;10.728;2023-07-02T11:19:08;18.80;99.90
70368;DHT22;57789;53.868;10.728;2023-07-02T11:21:34;17.70;99.90
70368;DHT22;57789;53.868;10.728;2023-07-02T11:24:05;16.90;99.90
70368;DHT22;57789;53.868;10.728;2023-07-02T11:26:39;16.70;99.90
70368;DHT22;57789;53.868;10.728;2023-07-02T11:29:10;16.50;99.90
70368;DHT22;57789;53.868;10.728;2023-07-02T11:31:36;16.50;99.90
70368;DHT22;57789;53.868;10.728;2023-07-02T11:34:11;16.50;99.90
70368;DHT22;57789;53.868;10.728;2023-07-02T11:36:37;16.90;99.90
70368;DHT22;57789;53.868;10.728;2023-07-02T11:39:03;17.20;99.90
70368;DHT22;57789;53.868;10.728;2023-07-02T11:41:49;17.40;99.90
70368;DHT22;57789;53.868;10.728;2023-07-02T11:44:16;17.40;99.90
70368;DHT22;57789;53.868;10.728;2023-07-02T11:46:41;17.60;99.90
70368;DHT22;57789;53.868;10.728;2023-07-02T11:49:07;17.70;99.90
70368;DHT22;57789;53.868;10.728;2023-07-02T11:51:36;18.30;99.90
70368;DHT22;57789;53.868;10.728;2023-07-02T11:54:03;18.50;99.90
70368;DHT22;57789;53.868;10.728;2023-07-02T11:56:30;19.00;99.90
70368;DHT22;57789;53.868;10.728;2023-07-02T11:58:55;19.00;99.90
70368;DHT22;57789;53.868;10.728;2023-07-02T12:01:23;18.80;99.90
70368;DHT22;57789;53.868;10.728;2023-07-02T12:03:50;19.00;99.90
70368;DHT22;57789;53.868;10.728;2023-07-02T12:06:16;19.50;99.90
70368;DHT22;57789;53.868;10.728;2023-07-02T12:08:42;20.40;99.90
70368;DHT22;57789;53.868;10.728;2023-07-02T12:11:08;21.00;99.90
70368;DHT22;57789;53.868;10.728;2023-07-02T12:13:36;20.70;99.90
70368;DHT22;57789;53.868;10.728;2023-07-02T12:16:03;20.80;99.90
70368;DHT22;57789;53.868;10.728;2023-07-02T12:18:29;21.00;99.90
70368;DHT22;57789;53.868;10.728;2023-07-02T12:20:56;21.30;99.90
70368;DHT22;57789;53.868;10.728;2023-07-02T12:23:23;21.60;99.90
70368;DHT22;57789;53.868;10.728;2023-07-02T12:25:51;21.10;99.90
70368;DHT22;57789;53.868;10.728;2023-07-02T12:28:18;20.40;99.90
70368;DHT22;57789;53.868;10.728;2023-07-02T12:30:45;20.00;99.90
70368;DHT22;57789;53.868;10.728;2023-07-02T12:33:11;19.40;99.90
70368;DHT22;57789;53.868;10.728;2023-07-02T12:35:37;19.50;99.90
70368;DHT22;57789;53.868;10.728;2023-07-02T12:38:03;20.00;99.90
70368;DHT22;57789;53.868;10.728;2023-07-02T12:40:30;20.40;99.90
70368;DHT22;57789;53.868;10.728;2023-07-02T12:42:56;20.80;99.90
70368;DHT22;57789;53.868;10.728;2023-07-02T12:45:25;21.10;99.90
70368;DHT22;57789;53.868;10.728;2023-07-02T12:47:51;20.90;99.90
70368;DHT22;57789;53.868;10.728;2023-07-02T12:50:18;21.10;99.90
70368;DHT22;57789;53.868;10.728;2023-07-02T12:52:44;21.40;99.90
70368;DHT22;57789;53.868;10.728;2023-07-02T12:55:10;21.70;99.90
70368;DHT22;57789;53.868;10.728;2023-07-02T12:57:36;22.00;99.90
70368;DHT22;57789;53.868;10.728;2023-07-02T13:00:04;22.50;99.90
70368;DHT22;57789;53.868;10.728;2023-07-02T13:02:34;22.10;99.90
70368;DHT22;57789;53.868;10.728;2023-07-02T13:05:00;22.10;99.90
70368;DHT22;57789;53.868;10.728;2023-07-02T13:07:26;22.30;99.90
70368;DHT22;57789;53.868;10.728;2023-07-02T13:09:51;21.50;99.90
70368;DHT22;57789;53.868;10.728;2023-07-02T13:12:17;21.10;99.90
70368;DHT22;57789;53.868;10.728;2023-07-02T13:14:43;21.00;99.90
70368;DHT22;57789;53.868;10.728;2023-07-02T13:17:09;20.70;99.90
70368;DHT22;57789;53.868;10.728;2023-07-02T13:19:34;21.00;99.90
70368;DHT22;57789;53.868;10.728;2023-07-02T13:22:01;20.60;99.90
70368;DHT22;57789;53.868;10.728;2023-07-02T13:24:31;20.60;99.90
70368;DHT22;57789;53.868;10.728;2023-07-02T13:26:57;20.50;99.90
70368;DHT22;57789;53.868;10.728;2023-07-02T13:29:23;20.50;99.90
70368;DHT22;57789;53.868;10.728;2023-07-02T13:31:48;20.80;99.90
70368;DHT22;57789;53.868;10.728;2023-07-02T13:34:14;21.00;99.90
70368;DHT22;57789;53.868;10.728;2023-07-02T13:36:39;21.30;99.90
70368;DHT22;57789;53.868;10.728;2023-07-02T13:39:05;21.90;99.90
70368;DHT22;57789;53.868;10.728;2023-07-02T13:41:32;22.40;99.30
70368;DHT22;57789;53.868;10.728;2023-07-02T13:43:59;22.70;98.30
70368;DHT22;57789;53.868;10.728;2023-07-02T13:46:24;22.90;97.20
70368;DHT22;57789;53.868;10.728;2023-07-02T13:48:50;22.70;96.40
70368;DHT22;57789;53.868;10.728;2023-07-02T13:51:16;22.70;96.90
70368;DHT22;57789;53.868;10.728;2023-07-02T13:53:41;22.50;97.40
70368;DHT22;57789;53.868;10.728;2023-07-02T13:56:07;21.40;98.10
70368;DHT22;57789;53.868;10.728;2023-07-02T13:58:45;20.70;99.50
70368;DHT22;57789;53.868;10.728;2023-07-02T14:01:13;20.40;99.90
70368;DHT22;57789;53.868;10.728;2023-07-02T14:03:38;20.30;99.90
70368;DHT22;57789;53.868;10.728;2023-07-02T14:06:04;20.10;99.90
70368;DHT22;57789;53.868;10.728;2023-07-02T14:08:31;20.40;99.90
70368;DHT22;57789;53.868;10.728;2023-07-02T14:10:56;20.30;99.80
70368;DHT22;57789;53.868;10.728;2023-07-02T14:13:22;20.50;99.70
70368;DHT22;57789;53.868;10.728;2023-07-02T14:15:48;20.70;99.00
70368;DHT22;57789;53.868;10.728;2023-07-02T14:18:13;20.50;98.40
70368;DHT22;57789;53.868;10.728;2023-07-02T14:20:39;20.60;99.20
70368;DHT22;57789;53.868;10.728;2023-07-02T14:23:04;21.60;98.50
70368;DHT22;57789;53.868;10.728;2023-07-02T14:25:30;21.90;96.40
70368;DHT22;57789;53.868;10.728;2023-07-02T14:27:56;21.70;96.50
70368;DHT22;57789;53.868;10.728;2023-07-02T14:30:21;21.50;97.10
70368;DHT22;57789;53.868;10.728;2023-07-02T14:32:47;20.80;98.70
70368;DHT22;57789;53.868;10.728;2023-07-02T14:35:13;20.90;99.60
70368;DHT22;57789;53.868;10.728;2023-07-02T14:37:38;20.90;99.90
70368;DHT22;57789;53.868;10.728;2023-07-02T14:40:04;21.20;99.90
70368;DHT22;57789;53.868;10.728;2023-07-02T14:42:30;21.90;99.90
70368;DHT22;57789;53.868;10.728;2023-07-02T14:44:56;21.60;98.20
70368;DHT22;57789;53.868;10.728;2023-07-02T14:47:22;21.20;99.80
70368;DHT22;57789;53.868;10.728;2023-07-02T14:49:47;21.50;99.90
70368;DHT22;57789;53.868;10.728;2023-07-02T14:52:13;21.70;99.00
70368;DHT22;57789;53.868;10.728;2023-07-02T14:54:39;21.30;99.00
70368;DHT22;57789;53.868;10.728;2023-07-02T14:57:04;21.20;99.10
70368;DHT22;57789;53.868;10.728;2023-07-02T14:59:30;21.40;99.40
70368;DHT22;57789;53.868;10.728;2023-07-02T15:01:56;21.80;98.30
70368;DHT22;57789;53.868;10.728;2023-07-02T15:04:21;22.20;96.70
70368;DHT22;57789;53.868;10.728;2023-07-02T15:06:47;21.90;96.90
70368;DHT22;57789;53.868;10.728;2023-07-02T15:09:13;21.90;96.60
70368;DHT22;57789;53.868;10.728;2023-07-02T15:11:38;21.70;97.40
70368;DHT22;57789;53.868;10.728;2023-07-02T15:14:04;21.80;97.10